createdAt,value
2023-07-28T00:00:13.946Z,19.08
2023-07-28T00:02:44.061Z,18.97
2023-07-28T00:05:16.346Z,19.02
2023-07-28T00:07:45.147Z,18.94
2023-07-28T00:10:13.609Z,19.14
2023-07-28T00:12:44.302Z,19.01
2023-07-28T00:22:42.979Z,19.09
2023-07-28T00:25:10.706Z,18.86
2023-07-28T00:27:40.359Z,18.89
2023-07-28T00:30:13.499Z,18.80
2023-07-28T00:32:47.224Z,18.89
2023-07-28T00:35:25.669Z,18.90
2023-07-28T00:38:10.937Z,18.78
2023-07-28T00:44:05.801Z,18.75
2023-07-28T00:50:09.884Z,18.74
2023-07-28T00:52:37.769Z,18.57
2023-07-28T00:55:06.924Z,18.56
2023-07-28T01:18:34.953Z,18.29
2023-07-28T01:21:45.266Z,18.38
2023-07-28T01:27:44.788Z,18.22
2023-07-28T01:37:06.935Z,18.10
2023-07-28T01:42:47.525Z,18.15
2023-07-28T01:45:15.145Z,18.25
2023-07-28T01:47:42.551Z,18.20
2023-07-28T01:57:23.520Z,18.19
2023-07-28T01:59:51.102Z,18.29
2023-07-28T02:02:18.442Z,18.30
2023-07-28T02:04:45.889Z,18.09
2023-07-28T02:07:13.493Z,18.27
2023-07-28T02:09:40.868Z,18.14
2023-07-28T02:12:08.321Z,18.24
2023-07-28T02:14:35.644Z,18.41
2023-07-28T02:17:20.647Z,18.52
2023-07-28T02:19:49.457Z,18.36
2023-07-28T02:22:22.538Z,18.35
2023-07-28T02:25:03.201Z,18.39
2023-07-28T02:27:51.004Z,18.41
2023-07-28T02:30:20.869Z,18.50
2023-07-28T02:32:53.408Z,18.62
2023-07-28T02:35:24.044Z,18.85
2023-07-28T02:37:52.619Z,18.89
2023-07-28T02:40:20.308Z,18.79
2023-07-28T02:42:50.900Z,18.74
2023-07-28T02:45:49.425Z,19.05
2023-07-28T02:48:19.490Z,18.90
2023-07-28T02:50:48.633Z,19.12
2023-07-28T02:53:21.990Z,19.06
2023-07-28T02:55:50.231Z,19.36
2023-07-28T02:58:19.209Z,19.42
2023-07-28T03:00:54.747Z,19.50
2023-07-28T03:03:22.074Z,19.39
2023-07-28T03:05:54.049Z,19.51
2023-07-28T03:08:22.058Z,19.63
2023-07-28T03:10:51.747Z,19.77
2023-07-28T03:13:20.225Z,19.75
2023-07-28T03:15:47.581Z,19.75
2023-07-28T03:18:14.799Z,19.95
2023-07-28T03:20:42.081Z,19.87
2023-07-28T03:23:09.399Z,19.92
2023-07-28T03:25:36.907Z,20.11
2023-07-28T03:28:04.339Z,20.17
2023-07-28T03:30:37.279Z,20.07
2023-07-28T03:33:04.935Z,20.35
2023-07-28T03:35:32.336Z,20.30
2023-07-28T03:37:59.714Z,20.45
2023-07-28T03:40:33.812Z,20.41
2023-07-28T03:43:01.202Z,20.57
2023-07-28T03:45:28.742Z,20.50
2023-07-28T03:47:56.089Z,20.71
2023-07-28T03:50:25.794Z,20.73
2023-07-28T03:52:53.279Z,20.82
2023-07-28T03:55:20.588Z,20.86
2023-07-28T03:57:47.987Z,20.94
2023-07-28T04:00:54.027Z,21.12
2023-07-28T04:06:13.757Z,21.16
2023-07-28T04:08:44.021Z,21.32
2023-07-28T04:11:31.249Z,21.40
2023-07-28T04:13:58.730Z,21.47
2023-07-28T04:16:25.997Z,21.43
2023-07-28T04:18:53.991Z,21.54
2023-07-28T04:21:21.800Z,21.61
2023-07-28T04:23:49.271Z,21.80
2023-07-28T04:26:19.075Z,21.87
2023-07-28T04:28:46.663Z,21.97
2023-07-28T04:31:15.403Z,21.88
2023-07-28T04:34:12.174Z,22.14
2023-07-28T04:36:39.441Z,22.08
2023-07-28T04:39:06.694Z,22.29
2023-07-28T04:41:34.328Z,22.29
2023-07-28T04:44:02.486Z,22.30
2023-07-28T04:46:31.089Z,22.44
2023-07-28T04:48:58.415Z,22.55
2023-07-28T04:51:25.764Z,22.70
2023-07-28T04:53:53.252Z,22.65
2023-07-28T04:56:21.598Z,22.72
2023-07-28T04:58:48.881Z,22.84
2023-07-28T05:01:16.232Z,22.90
2023-07-28T05:03:43.968Z,23.00
2023-07-28T05:09:53.796Z,23.10
2023-07-28T05:12:21.948Z,23.29
2023-07-28T05:14:49.318Z,23.48
2023-07-28T05:17:18.892Z,23.51
2023-07-28T05:19:46.847Z,23.49
2023-07-28T05:22:52.550Z,23.68
2023-07-28T05:25:20.150Z,23.72
2023-07-28T05:27:50.675Z,23.66
2023-07-28T05:30:18.454Z,23.75
2023-07-28T05:33:06.457Z,24.03
2023-07-28T05:35:34.235Z,24.21
2023-07-28T05:38:02.135Z,24.41
2023-07-28T05:40:30.189Z,24.73
2023-07-28T05:43:00.727Z,24.99
2023-07-28T05:45:28.248Z,25.22
2023-07-28T05:47:58.622Z,25.21
2023-07-28T05:50:26.215Z,25.18
2023-07-28T05:52:54.235Z,25.12
2023-07-28T05:55:24.971Z,25.29
2023-07-28T05:57:52.481Z,25.48
2023-07-28T06:00:19.910Z,25.48
2023-07-28T06:02:47.510Z,25.39
2023-07-28T06:05:15.000Z,25.44
2023-07-28T06:07:42.646Z,25.50
2023-07-28T06:13:34.932Z,25.93
2023-07-28T06:16:04.657Z,26.00
2023-07-28T06:18:32.403Z,26.29
2023-07-28T06:21:12.534Z,26.47
2023-07-28T06:23:42.308Z,26.95
2023-07-28T06:26:12.285Z,27.28
2023-07-28T06:28:39.929Z,27.26
2023-07-28T06:31:07.621Z,27.48
2023-07-28T06:33:38.815Z,27.61
2023-07-28T06:36:09.086Z,27.54
2023-07-28T11:29:12.956Z,42.71
2023-07-28T11:31:42.818Z,42.38
2023-07-28T11:34:32.510Z,42.15
2023-07-28T11:48:00.066Z,40.27
2023-07-28T13:57:18.590Z,36.17
2023-07-28T14:10:08.270Z,35.99
2023-07-28T14:16:02.428Z,35.70
2023-07-28T14:18:30.577Z,35.38
2023-07-28T14:50:25.942Z,33.62
2023-07-28T15:14:29.417Z,32.64
2023-07-28T15:17:29.198Z,32.61
2023-07-28T15:19:56.754Z,32.50
2023-07-28T15:22:24.832Z,32.26
2023-07-28T15:25:01.670Z,32.17
2023-07-28T15:27:29.644Z,32.06
2023-07-28T15:30:03.512Z,31.85
2023-07-28T15:35:59.243Z,31.21
2023-07-28T15:38:26.986Z,31.28
2023-07-28T15:40:59.092Z,31.12
2023-07-28T15:43:27.018Z,30.95
2023-07-28T15:45:56.813Z,30.98
2023-07-28T15:48:26.033Z,30.93
2023-07-28T15:57:50.357Z,30.33
2023-07-28T16:00:20.876Z,30.36
2023-07-28T16:02:50.024Z,30.16
2023-07-28T16:05:17.670Z,29.91
2023-07-28T16:11:15.632Z,29.66
2023-07-28T16:13:43.239Z,29.47
2023-07-28T16:16:12.984Z,29.11
2023-07-28T16:18:40.919Z,29.05
2023-07-28T16:21:08.300Z,29.01
2023-07-28T16:23:35.791Z,28.75
2023-07-28T16:26:04.445Z,28.63
2023-07-28T16:29:06.234Z,28.67
2023-07-28T16:32:15.003Z,28.46
2023-07-28T16:35:04.362Z,28.22
2023-07-28T16:44:25.850Z,27.85
2023-07-28T16:46:54.119Z,27.63
2023-07-28T16:49:22.010Z,27.55
2023-07-28T16:51:49.458Z,27.50
2023-07-28T16:54:17.091Z,27.43
2023-07-28T17:10:33.146Z,26.86
2023-07-28T17:13:05.644Z,26.73
2023-07-28T17:39:42.868Z,26.33
2023-07-28T17:42:10.198Z,26.31
2023-07-28T17:45:50.295Z,26.42
2023-07-28T18:21:38.776Z,25.69
2023-07-28T18:24:14.861Z,25.44
2023-07-28T20:06:22.845Z,24.51
2023-07-28T20:08:54.209Z,24.24
2023-07-28T20:43:28.951Z,23.91
2023-07-28T20:45:58.343Z,23.78
2023-07-28T20:48:26.210Z,23.83
2023-07-28T20:51:24.361Z,23.84
2023-07-28T20:54:28.753Z,23.74
2023-07-28T20:57:09.103Z,23.80
2023-07-28T20:59:45.153Z,23.70
2023-07-28T21:12:45.805Z,22.97
2023-07-28T21:15:15.437Z,22.74
2023-07-28T21:21:13.085Z,22.55
2023-07-28T23:07:02.293Z,22.52
2023-07-28T23:13:18.925Z,22.81
2023-07-28T23:26:07.155Z,23.03
2023-07-28T23:28:34.625Z,23.03
2023-07-28T23:38:03.358Z,23.27
2023-07-28T23:41:02.656Z,23.30
2023-07-28T23:43:47.230Z,23.25
